sensor_id;sensor_type;location;lat;lon;timestamp;pressure;altitude;pressure_sealevel;temperature;humidity
24486;BME280;13449;49.374;8.584;2024-03-02T00:00:21;99349.34;;;5.80;100.00
24486;BME280;13449;49.374;8.584;2024-03-02T00:02:49;99347.25;;;5.85;100.00
24486;BME280;13449;49.374;8.584;2024-03-02T00:05:21;99343.88;;;5.83;100.00
24486;BME280;13449;49.374;8.584;2024-03-02T00:07:55;99349.75;;;5.86;100.00
24486;BME280;13449;49.374;8.584;2024-03-02T00:10:24;99338.72;;;5.94;100.00
24486;BME280;13449;49.374;8.584;2024-03-02T00:12:56;99340.41;;;5.95;100.00
24486;BME280;13449;49.374;8.584;2024-03-02T00:18:12;99329.00;;;5.96;100.00
24486;BME280;13449;49.374;8.584;2024-03-02T00:20:43;99335.75;;;5.98;100.00
24486;BME280;13449;49.374;8.584;2024-03-02T00:23:10;99324.84;;;5.93;100.00
24486;BME280;13449;49.374;8.584;2024-03-02T00:25:46;99333.06;;;6.11;100.00
24486;BME280;13449;49.374;8.584;2024-03-02T00:28:24;99325.25;;;6.22;100.00
24486;BME280;13449;49.374;8.584;2024-03-02T00:31:04;99326.75;;;6.14;100.00
24486;BME280;13449;49.374;8.584;2024-03-02T00:33:35;99328.41;;;6.15;100.00
24486;BME280;13449;49.374;8.584;2024-03-02T00:36:03;99326.63;;;6.15;100.00
24486;BME280;13449;49.374;8.584;2024-03-02T00:38:30;99324.97;;;6.14;100.00
24486;BME280;13449;49.374;8.584;2024-03-02T00:40:59;99332.81;;;6.14;100.00
24486;BME280;13449;49.374;8.584;2024-03-02T00:46:34;99330.91;;;6.05;100.00
24486;BME280;13449;49.374;8.584;2024-03-02T00:49:05;99332.09;;;6.01;100.00
24486;BME280;13449;49.374;8.584;2024-03-02T00:51:36;99337.19;;;5.91;100.00
24486;BME280;13449;49.374;8.584;2024-03-02T00:54:08;99330.63;;;5.86;100.00
24486;BME280;13449;49.374;8.584;2024-03-02T00:56:35;99328.44;;;5.80;100.00
24486;BME280;13449;49.374;8.584;2024-03-02T00:59:02;99328.09;;;5.73;100.00
24486;BME280;13449;49.374;8.584;2024-03-02T01:01:31;99322.25;;;5.69;100.00
24486;BME280;13449;49.374;8.584;2024-03-02T01:03:58;99320.13;;;5.75;100.00
24486;BME280;13449;49.374;8.584;2024-03-02T01:06:25;99326.88;;;5.66;100.00
24486;BME280;13449;49.374;8.584;2024-03-02T01:08:53;99331.94;;;5.56;100.00
24486;BME280;13449;49.374;8.584;2024-03-02T01:11:20;99338.84;;;5.57;100.00
24486;BME280;13449;49.374;8.584;2024-03-02T01:13:50;99344.50;;;5.51;100.00
24486;BME280;13449;49.374;8.584;2024-03-02T01:16:17;99338.69;;;5.48;100.00
24486;BME280;13449;49.374;8.584;2024-03-02T01:18:43;99347.09;;;5.40;100.00
24486;BME280;13449;49.374;8.584;2024-03-02T01:21:10;99343.13;;;5.34;100.00
24486;BME280;13449;49.374;8.584;2024-03-02T01:23:37;99349.19;;;5.35;100.00
24486;BME280;13449;49.374;8.584;2024-03-02T01:26:04;99353.56;;;5.34;100.00
24486;BME280;13449;49.374;8.584;2024-03-02T01:28:30;99349.19;;;5.35;100.00
24486;BME280;13449;49.374;8.584;2024-03-02T01:30:57;99347.75;;;5.31;100.00
24486;BME280;13449;49.374;8.584;2024-03-02T01:33:24;99348.34;;;5.34;100.00
24486;BME280;13449;49.374;8.584;2024-03-02T01:35:51;99338.72;;;5.35;100.00
24486;BME280;13449;49.374;8.584;2024-03-02T01:38:17;99340.69;;;5.44;100.00
24486;BME280;13449;49.374;8.584;2024-03-02T01:40:44;99338.41;;;5.39;100.00
24486;BME280;13449;49.374;8.584;2024-03-02T01:43:13;99333.63;;;5.33;100.00
24486;BME280;13449;49.374;8.584;2024-03-02T01:45:40;99328.28;;;5.35;100.00
24486;BME280;13449;49.374;8.584;2024-03-02T01:48:07;99328.28;;;5.35;100.00
24486;BME280;13449;49.374;8.584;2024-03-02T01:50:35;99319.91;;;5.43;100.00
24486;BME280;13449;49.374;8.584;2024-03-02T01:53:02;99324.53;;;5.39;100.00
24486;BME280;13449;49.374;8.584;2024-03-02T01:55:29;99322.03;;;5.37;100.00
24486;BME280;13449;49.374;8.584;2024-03-02T01:57:57;99327.34;;;5.36;100.00
24486;BME280;13449;49.374;8.584;2024-03-02T02:00:25;99324.28;;;5.42;100.00
24486;BME280;13449;49.374;8.584;2024-03-02T02:02:53;99312.19;;;5.41;100.00
24486;BME280;13449;49.374;8.584;2024-03-02T02:05:19;99315.97;;;5.37;100.00
24486;BME280;13449;49.374;8.584;2024-03-02T02:07:46;99310.53;;;5.40;100.00
24486;BME280;13449;49.374;8.584;2024-03-02T02:10:12;99308.16;;;5.37;100.00
24486;BME280;13449;49.374;8.584;2024-03-02T02:12:39;99297.69;;;5.37;100.00
24486;BME280;13449;49.374;8.584;2024-03-02T02:15:25;99297.19;;;5.32;100.00
24486;BME280;13449;49.374;8.584;2024-03-02T02:17:53;99297.66;;;5.26;100.00
24486;BME280;13449;49.374;8.584;2024-03-02T02:20:20;99299.31;;;5.27;100.00
24486;BME280;13449;49.374;8.584;2024-03-02T02:23:03;99295.47;;;5.20;100.00
24486;BME280;13449;49.374;8.584;2024-03-02T02:25:31;99299.03;;;5.19;100.00
24486;BME280;13449;49.374;8.584;2024-03-02T02:27:58;99294.53;;;5.21;100.00
24486;BME280;13449;49.374;8.584;2024-03-02T02:30:32;99299.13;;;5.17;100.00
24486;BME280;13449;49.374;8.584;2024-03-02T02:33:00;99291.66;;;5.13;100.00
24486;BME280;13449;49.374;8.584;2024-03-02T02:35:27;99293.03;;;5.29;100.00
24486;BME280;13449;49.374;8.584;2024-03-02T02:37:55;99286.47;;;5.24;100.00
24486;BME280;13449;49.374;8.584;2024-03-02T02:40:23;99284.94;;;5.21;100.00
24486;BME280;13449;49.374;8.584;2024-03-02T02:42:50;99281.75;;;5.29;100.00
24486;BME280;13449;49.374;8.584;2024-03-02T02:45:19;99285.06;;;5.31;100.00
24486;BME280;13449;49.374;8.584;2024-03-02T02:47:46;99284.13;;;5.32;100.00
24486;BME280;13449;49.374;8.584;2024-03-02T02:50:14;99274.88;;;5.28;100.00
24486;BME280;13449;49.374;8.584;2024-03-02T02:52:42;99277.88;;;5.46;100.00
24486;BME280;13449;49.374;8.584;2024-03-02T02:55:12;99276.03;;;5.24;100.00
24486;BME280;13449;49.374;8.584;2024-03-02T02:57:41;99275.69;;;5.04;100.00
24486;BME280;13449;49.374;8.584;2024-03-02T03:00:11;99274.97;;;5.02;100.00
24486;BME280;13449;49.374;8.584;2024-03-02T03:02:48;99267.88;;;5.04;100.00
24486;BME280;13449;49.374;8.584;2024-03-02T03:05:17;99269.38;;;4.96;100.00
24486;BME280;13449;49.374;8.584;2024-03-02T03:07:44;99266.84;;;5.07;100.00
24486;BME280;13449;49.374;8.584;2024-03-02T03:10:19;99276.69;;;5.15;100.00
24486;BME280;13449;49.374;8.584;2024-03-02T03:12:49;99261.44;;;4.97;100.00
24486;BME280;13449;49.374;8.584;2024-03-02T03:15:16;99260.50;;;4.98;100.00
24486;BME280;13449;49.374;8.584;2024-03-02T03:17:43;99272.34;;;4.91;100.00
24486;BME280;13449;49.374;8.584;2024-03-02T03:20:13;99266.41;;;4.89;100.00
24486;BME280;13449;49.374;8.584;2024-03-02T03:22:41;99262.84;;;4.90;100.00
24486;BME280;13449;49.374;8.584;2024-03-02T03:25:10;99257.31;;;4.82;100.00
24486;BME280;13449;49.374;8.584;2024-03-02T03:27:37;99256.94;;;4.75;100.00
24486;BME280;13449;49.374;8.584;2024-03-02T03:30:04;99262.78;;;4.79;100.00
24486;BME280;13449;49.374;8.584;2024-03-02T03:32:33;99248.78;;;4.80;100.00
24486;BME280;13449;49.374;8.584;2024-03-02T03:34:59;99248.97;;;4.90;100.00
24486;BME280;13449;49.374;8.584;2024-03-02T03:37:26;99244.22;;;4.95;100.00
24486;BME280;13449;49.374;8.584;2024-03-02T03:40:00;99248.75;;;4.93;100.00
24486;BME280;13449;49.374;8.584;2024-03-02T03:42:27;99246.44;;;4.88;100.00
24486;BME280;13449;49.374;8.584;2024-03-02T03:44:54;99246.91;;;4.82;100.00
24486;BME280;13449;49.374;8.584;2024-03-02T03:47:20;99242.63;;;4.81;100.00
24486;BME280;13449;49.374;8.584;2024-03-02T03:49:47;99251.00;;;4.97;100.00
24486;BME280;13449;49.374;8.584;2024-03-02T03:52:13;99251.66;;;4.88;100.00
24486;BME280;13449;49.374;8.584;2024-03-02T03:54:40;99254.00;;;4.80;100.00
24486;BME280;13449;49.374;8.584;2024-03-02T03:57:09;99242.50;;;4.82;100.00
24486;BME280;13449;49.374;8.584;2024-03-02T03:59:36;99235.34;;;4.97;100.00
24486;BME280;13449;49.374;8.584;2024-03-02T04:02:03;99247.38;;;4.87;100.00
24486;BME280;13449;49.374;8.584;2024-03-02T04:04:30;99249.03;;;4.88;100.00
24486;BME280;13449;49.374;8.584;2024-03-02T04:06:57;99253.13;;;4.92;100.00
24486;BME280;13449;49.374;8.584;2024-03-02T04:09:24;99251.22;;;4.94;100.00
24486;BME280;13449;49.374;8.584;2024-03-02T04:11:52;99252.66;;;4.98;100.00
24486;BME280;13449;49.374;8.584;2024-03-02T04:14:19;99248.34;;;5.10;100.00
24486;BME280;13449;49.374;8.584;2024-03-02T04:16:46;99253.50;;;5.23;100.00
24486;BME280;13449;49.374;8.584;2024-03-02T04:19:13;99252.56;;;5.35;100.00
24486;BME280;13449;49.374;8.584;2024-03-02T04:21:39;99255.34;;;5.45;100.00
24486;BME280;13449;49.374;8.584;2024-03-02T04:24:09;99251.19;;;5.42;100.00
24486;BME280;13449;49.374;8.584;2024-03-02T04:26:35;99253.19;;;5.50;100.00
24486;BME280;13449;49.374;8.584;2024-03-02T04:29:02;99250.69;;;5.48;100.00
24486;BME280;13449;49.374;8.584;2024-03-02T04:31:28;99246.66;;;5.44;100.00
24486;BME280;13449;49.374;8.584;2024-03-02T04:33:56;99255.25;;;5.57;100.00
24486;BME280;13449;49.374;8.584;2024-03-02T04:36:22;99258.81;;;5.56;100.00
24486;BME280;13449;49.374;8.584;2024-03-02T04:38:51;99257.75;;;5.59;100.00
24486;BME280;13449;49.374;8.584;2024-03-02T04:41:18;99258.81;;;5.56;100.00
24486;BME280;13449;49.374;8.584;2024-03-02T04:43:44;99262.38;;;5.55;100.00
24486;BME280;13449;49.374;8.584;2024-03-02T04:46:11;99258.94;;;5.66;100.00
24486;BME280;13449;49.374;8.584;2024-03-02T04:48:40;99258.56;;;5.59;100.00
24486;BME280;13449;49.374;8.584;2024-03-02T04:51:06;99258.53;;;5.37;100.00
24486;BME280;13449;49.374;8.584;2024-03-02T04:53:33;99258.72;;;5.34;100.00
24486;BME280;13449;49.374;8.584;2024-03-02T04:56:00;99253.22;;;5.15;100.00
24486;BME280;13449;49.374;8.584;2024-03-02T04:59:02;99267.78;;;5.41;100.00
24486;BME280;13449;49.374;8.584;2024-03-02T05:01:30;99276.34;;;5.43;100.00
24486;BME280;13449;49.374;8.584;2024-03-02T05:03:56;99278.13;;;5.43;100.00
24486;BME280;13449;49.374;8.584;2024-03-02T05:06:25;99286.50;;;5.35;100.00
24486;BME280;13449;49.374;8.584;2024-03-02T05:08:55;99282.09;;;5.24;100.00
24486;BME280;13449;49.374;8.584;2024-03-02T05:11:23;99288.09;;;5.14;100.00
24486;BME280;13449;49.374;8.584;2024-03-02T05:14:12;99285.41;;;5.02;100.00
24486;BME280;13449;49.374;8.584;2024-03-02T05:16:39;99292.16;;;4.94;100.00
24486;BME280;13449;49.374;8.584;2024-03-02T05:19:06;99290.91;;;4.87;100.00
24486;BME280;13449;49.374;8.584;2024-03-02T05:21:35;99293.25;;;4.78;100.00
24486;BME280;13449;49.374;8.584;2024-03-02T05:24:02;99290.22;;;4.72;100.00
24486;BME280;13449;49.374;8.584;2024-03-02T05:26:29;99289.22;;;4.62;100.00
24486;BME280;13449;49.374;8.584;2024-03-02T05:28:56;99288.94;;;4.54;100.00
24486;BME280;13449;49.374;8.584;2024-03-02T05:31:22;99288.31;;;4.50;100.00
24486;BME280;13449;49.374;8.584;2024-03-02T05:33:49;99287.69;;;4.46;100.00
24486;BME280;13449;49.374;8.584;2024-03-02T05:36:22;99301.91;;;4.42;100.00
24486;BME280;13449;49.374;8.584;2024-03-02T05:38:49;99294.19;;;4.28;100.00
24486;BME280;13449;49.374;8.584;2024-03-02T05:41:15;99299.09;;;4.20;100.00
24486;BME280;13449;49.374;8.584;2024-03-02T05:43:43;99294.31;;;4.14;100.00
24486;BME280;13449;49.374;8.584;2024-03-02T05:46:09;99296.09;;;4.26;100.00
24486;BME280;13449;49.374;8.584;2024-03-02T05:48:38;99296.09;;;4.26;100.00
24486;BME280;13449;49.374;8.584;2024-03-02T05:51:05;99287.94;;;4.18;100.00
24486;BME280;13449;49.374;8.584;2024-03-02T05:53:34;99288.34;;;4.25;100.00
24486;BME280;13449;49.374;8.584;2024-03-02T05:56:05;99290.00;;;4.38;100.00
24486;BME280;13449;49.374;8.584;2024-03-02T05:58:35;99290.63;;;4.42;100.00
24486;BME280;13449;49.374;8.584;2024-03-02T06:01:21;99285.09;;;4.46;100.00
24486;BME280;13449;49.374;8.584;2024-03-02T06:03:55;99283.72;;;4.54;100.00
24486;BME280;13449;49.374;8.584;2024-03-02T06:06:23;99284.03;;;4.49;100.00
24486;BME280;13449;49.374;8.584;2024-03-02T06:08:50;99287.59;;;4.48;100.00
24486;BME280;13449;49.374;8.584;2024-03-02T06:11:19;99296.84;;;4.52;100.00
24486;BME280;13449;49.374;8.584;2024-03-02T06:13:45;99304.41;;;4.44;100.00
24486;BME280;13449;49.374;8.584;2024-03-02T06:16:12;99299.38;;;4.41;100.00
24486;BME280;13449;49.374;8.584;2024-03-02T06:18:39;99295.44;;;4.35;100.00
24486;BME280;13449;49.374;8.584;2024-03-02T06:21:12;99292.31;;;4.43;100.00
24486;BME280;13449;49.374;8.584;2024-03-02T06:23:38;99301.69;;;4.45;100.00
24486;BME280;13449;49.374;8.584;2024-03-02T06:26:06;99302.09;;;4.39;100.00
24486;BME280;13449;49.374;8.584;2024-03-02T06:28:35;99303.75;;;4.40;100.00
24486;BME280;13449;49.374;8.584;2024-03-02T06:31:02;99307.00;;;4.44;100.00
24486;BME280;13449;49.374;8.584;2024-03-02T06:33:29;99306.19;;;4.43;100.00
24486;BME280;13449;49.374;8.584;2024-03-02T06:35:55;99317.31;;;4.45;100.00
24486;BME280;13449;49.374;8.584;2024-03-02T06:38:22;99312.34;;;4.42;100.00
24486;BME280;13449;49.374;8.584;2024-03-02T06:40:52;99314.19;;;4.40;100.00
24486;BME280;13449;49.374;8.584;2024-03-02T06:43:19;99315.84;;;4.41;100.00
24486;BME280;13449;49.374;8.584;2024-03-02T06:45:52;99314.19;;;4.40;100.00
24486;BME280;13449;49.374;8.584;2024-03-02T06:48:21;99313.56;;;4.37;100.00
24486;BME280;13449;49.374;8.584;2024-03-02T06:50:49;99317.72;;;4.39;100.00
24486;BME280;13449;49.374;8.584;2024-03-02T06:53:16;99321.06;;;4.41;100.00
24486;BME280;13449;49.374;8.584;2024-03-02T06:55:44;99321.06;;;4.41;100.00
24486;BME280;13449;49.374;8.584;2024-03-02T06:58:15;99320.03;;;4.44;100.00
24486;BME280;13449;49.374;8.584;2024-03-02T07:00:44;99319.00;;;4.46;100.00
24486;BME280;13449;49.374;8.584;2024-03-02T07:03:11;99317.09;;;4.48;100.00
24486;BME280;13449;49.374;8.584;2024-03-02T07:05:37;99324.81;;;4.50;100.00
24486;BME280;13449;49.374;8.584;2024-03-02T07:08:04;99328.97;;;4.53;100.00
24486;BME280;13449;49.374;8.584;2024-03-02T07:10:32;99324.94;;;4.48;100.00
24486;BME280;13449;49.374;8.584;2024-03-02T07:12:58;99327.53;;;4.48;100.00
24486;BME280;13449;49.374;8.584;2024-03-02T07:15:25;99317.09;;;4.48;100.00
24486;BME280;13449;49.374;8.584;2024-03-02T07:17:55;99318.03;;;4.47;100.00
24486;BME280;13449;49.374;8.584;2024-03-02T07:20:22;99317.31;;;4.45;100.00
24486;BME280;13449;49.374;8.584;2024-03-02T07:22:49;99319.31;;;4.42;100.00
24486;BME280;13449;49.374;8.584;2024-03-02T07:25:15;99318.47;;;4.41;100.00
24486;BME280;13449;49.374;8.584;2024-03-02T07:27:45;99307.94;;;4.43;100.00
24486;BME280;13449;49.374;8.584;2024-03-02T07:30:14;99317.31;;;4.45;100.00
24486;BME280;13449;49.374;8.584;2024-03-02T07:32:46;99319.59;;;4.50;100.00
24486;BME280;13449;49.374;8.584;2024-03-02T07:35:13;99326.91;;;4.58;100.00
24486;BME280;13449;49.374;8.584;2024-03-02T07:37:43;99330.28;;;4.71;100.00
24486;BME280;13449;49.374;8.584;2024-03-02T07:40:10;99335.69;;;4.93;100.00
24486;BME280;13449;49.374;8.584;2024-03-02T07:42:40;99334.06;;;5.03;100.00
24486;BME280;13449;49.374;8.584;2024-03-02T07:45:07;99336.75;;;5.15;100.00
24486;BME280;13449;49.374;8.584;2024-03-02T07:47:34;99342.91;;;5.37;100.00
24486;BME280;13449;49.374;8.584;2024-03-02T07:50:01;99339.50;;;5.48;100.00
24486;BME280;13449;49.374;8.584;2024-03-02T07:52:28;99348.69;;;5.54;100.00
24486;BME280;13449;49.374;8.584;2024-03-02T07:54:55;99342.88;;;5.61;100.00
24486;BME280;13449;49.374;8.584;2024-03-02T07:57:22;99356.47;;;5.78;100.00
24486;BME280;13449;49.374;8.584;2024-03-02T07:59:49;99350.41;;;6.12;100.00
24486;BME280;13449;49.374;8.584;2024-03-02T08:02:17;99343.78;;;6.30;100.00
24486;BME280;13449;49.374;8.584;2024-03-02T08:04:44;99348.44;;;6.49;100.00
24486;BME280;13449;49.374;8.584;2024-03-02T08:07:12;99348.19;;;6.75;100.00
24486;BME280;13449;49.374;8.584;2024-03-02T08:09:41;99352.56;;;6.97;100.00
24486;BME280;13449;49.374;8.584;2024-03-02T08:12:10;99354.66;;;7.14;100.00
24486;BME280;13449;49.374;8.584;2024-03-02T08:14:37;99346.25;;;7.42;100.00
24486;BME280;13449;49.374;8.584;2024-03-02T08:17:03;99332.31;;;7.74;100.00
24486;BME280;13449;49.374;8.584;2024-03-02T08:19:39;99333.69;;;7.99;100.00
24486;BME280;13449;49.374;8.584;2024-03-02T08:22:09;99334.13;;;8.25;100.00
24486;BME280;13449;49.374;8.584;2024-03-02T08:24:38;99327.25;;;8.54;100.00
24486;BME280;13449;49.374;8.584;2024-03-02T08:27:05;99326.44;;;8.63;100.00
24486;BME280;13449;49.374;8.584;2024-03-02T08:29:37;99312.84;;;8.89;100.00
24486;BME280;13449;49.374;8.584;2024-03-02T08:32:06;99305.00;;;9.08;100.00
24486;BME280;13449;49.374;8.584;2024-03-02T08:34:33;99300.03;;;9.24;100.00
24486;BME280;13449;49.374;8.584;2024-03-02T08:37:02;99290.09;;;9.38;100.00
24486;BME280;13449;49.374;8.584;2024-03-02T08:39:29;99284.13;;;9.55;100.00
24486;BME280;13449;49.374;8.584;2024-03-02T08:41:56;99279.72;;;9.65;100.00
24486;BME280;13449;49.374;8.584;2024-03-02T08:44:23;99279.38;;;9.97;100.00
24486;BME280;13449;49.374;8.584;2024-03-02T08:46:52;99273.06;;;10.17;100.00
24486;BME280;13449;49.374;8.584;2024-03-02T08:49:24;99265.88;;;10.29;100.00
24486;BME280;13449;49.374;8.584;2024-03-02T08:51:52;99265.81;;;10.39;100.00
24486;BME280;13449;49.374;8.584;2024-03-02T08:54:31;99264.41;;;10.44;100.00
24486;BME280;13449;49.374;8.584;2024-03-02T08:56:58;99254.75;;;10.63;100.00
24486;BME280;13449;49.374;8.584;2024-03-02T08:59:25;99253.84;;;10.72;100.00
24486;BME280;13449;49.374;8.584;2024-03-02T09:02:00;99258.34;;;10.89;100.00
24486;BME280;13449;49.374;8.584;2024-03-02T09:04:29;99239.97;;;10.97;100.00
24486;BME280;13449;49.374;8.584;2024-03-02T09:07:00;99227.91;;;10.77;100.00
24486;BME280;13449;49.374;8.584;2024-03-02T09:09:29;99233.22;;;10.67;100.00
24486;BME280;13449;49.374;8.584;2024-03-02T09:12:01;99233.09;;;10.69;100.00
24486;BME280;13449;49.374;8.584;2024-03-02T09:14:27;99236.50;;;10.79;100.00
24486;BME280;13449;49.374;8.584;2024-03-02T09:16:54;99245.28;;;10.88;100.00
24486;BME280;13449;49.374;8.584;2024-03-02T09:19:20;99238.00;;;10.99;100.00
24486;BME280;13449;49.374;8.584;2024-03-02T09:21:47;99225.19;;;10.87;100.00
24486;BME280;13449;49.374;8.584;2024-03-02T09:24:14;99229.06;;;10.92;100.00
24486;BME280;13449;49.374;8.584;2024-03-02T09:26:43;99229.56;;;11.14;100.00
24486;BME280;13449;49.374;8.584;2024-03-02T09:29:10;99234.47;;;11.26;100.00
24486;BME280;13449;49.374;8.584;2024-03-02T09:31:40;99232.22;;;11.14;100.00
24486;BME280;13449;49.374;8.584;2024-03-02T09:34:09;99229.06;;;11.10;100.00
24486;BME280;13449;49.374;8.584;2024-03-02T09:36:36;99214.66;;;11.04;100.00
24486;BME280;13449;49.374;8.584;2024-03-02T09:39:02;99224.31;;;11.14;100.00
24486;BME280;13449;49.374;8.584;2024-03-02T09:41:30;99222.44;;;11.24;100.00
24486;BME280;13449;49.374;8.584;2024-03-02T09:44:02;99228.97;;;11.20;100.00
24486;BME280;13449;49.374;8.584;2024-03-02T09:46:28;99227.25;;;11.28;100.00
24486;BME280;13449;49.374;8.584;2024-03-02T09:48:56;99222.78;;;11.29;100.00
24486;BME280;13449;49.374;8.584;2024-03-02T09:51:23;99222.16;;;11.35;100.00
24486;BME280;13449;49.374;8.584;2024-03-02T09:53:52;99227.16;;;11.38;100.00
24486;BME280;13449;49.374;8.584;2024-03-02T09:56:23;99223.81;;;11.36;100.00
24486;BME280;13449;49.374;8.584;2024-03-02T09:58:50;99228.03;;;11.47;100.00
24486;BME280;13449;49.374;8.584;2024-03-02T10:01:16;99209.69;;;11.63;100.00
24486;BME280;13449;49.374;8.584;2024-03-02T10:03:44;99217.84;;;11.69;100.00
24486;BME280;13449;49.374;8.584;2024-03-02T10:06:19;99214.56;;;11.76;100.00
24486;BME280;13449;49.374;8.584;2024-03-02T10:08:47;99208.41;;;11.85;100.00
24486;BME280;13449;49.374;8.584;2024-03-02T10:11:31;99205.88;;;11.83;100.00
24486;BME280;13449;49.374;8.584;2024-03-02T10:16:39;99204.31;;;11.90;100.00
24486;BME280;13449;49.374;8.584;2024-03-02T10:19:23;99198.91;;;12.00;100.00
24486;BME280;13449;49.374;8.584;2024-03-02T10:21:51;99199.59;;;12.02;100.00
24486;BME280;13449;49.374;8.584;2024-03-02T10:24:19;99203.06;;;12.11;100.00
24486;BME280;13449;49.374;8.584;2024-03-02T10:26:46;99203.06;;;12.11;100.00
24486;BME280;13449;49.374;8.584;2024-03-02T10:29:15;99199.00;;;12.24;100.00
24486;BME280;13449;49.374;8.584;2024-03-02T10:31:44;99190.44;;;12.22;100.00
24486;BME280;13449;49.374;8.584;2024-03-02T10:34:14;99202.31;;;12.26;100.00
24486;BME280;13449;49.374;8.584;2024-03-02T10:36:43;99199.34;;;12.21;100.00
24486;BME280;13449;49.374;8.584;2024-03-02T10:39:15;99197.25;;;12.41;100.00
24486;BME280;13449;49.374;8.584;2024-03-02T10:41:41;99189.06;;;12.52;100.00
24486;BME280;13449;49.374;8.584;2024-03-02T10:44:09;99190.88;;;12.52;100.00
24486;BME280;13449;49.374;8.584;2024-03-02T10:46:36;99192.88;;;12.66;100.00
24486;BME280;13449;49.374;8.584;2024-03-02T10:49:06;99192.56;;;12.69;100.00
24486;BME280;13449;49.374;8.584;2024-03-02T10:51:35;99182.81;;;12.70;100.00
24486;BME280;13449;49.374;8.584;2024-03-02T10:54:04;99181.34;;;12.83;100.00
24486;BME280;13449;49.374;8.584;2024-03-02T10:56:40;99182.00;;;12.77;100.00
24486;BME280;13449;49.374;8.584;2024-03-02T11:02:12;99176.25;;;12.82;100.00
24486;BME280;13449;49.374;8.584;2024-03-02T11:04:40;99176.88;;;12.76;100.00
24486;BME280;13449;49.374;8.584;2024-03-02T11:07:11;99177.19;;;12.73;100.00
24486;BME280;13449;49.374;8.584;2024-03-02T11:10:01;99179.56;;;13.00;100.00
24486;BME280;13449;49.374;8.584;2024-03-02T11:12:39;99179.25;;;13.11;100.00
24486;BME280;13449;49.374;8.584;2024-03-02T11:15:17;99178.44;;;13.19;100.00
24486;BME280;13449;49.374;8.584;2024-03-02T11:17:47;99174.16;;;13.26;100.00
24486;BME280;13449;49.374;8.584;2024-03-02T11:20:17;99167.84;;;13.35;100.00
24486;BME280;13449;49.374;8.584;2024-03-02T11:22:45;99164.22;;;13.44;100.00
24486;BME280;13449;49.374;8.584;2024-03-02T11:25:31;99161.41;;;13.30;100.00
24486;BME280;13449;49.374;8.584;2024-03-02T11:28:03;99164.84;;;13.38;100.00
24486;BME280;13449;49.374;8.584;2024-03-02T11:33:04;99145.66;;;13.61;100.00
24486;BME280;13449;49.374;8.584;2024-03-02T11:35:43;99144.53;;;13.39;100.00
24486;BME280;13449;49.374;8.584;2024-03-02T11:38:13;99139.06;;;13.40;100.00
24486;BME280;13449;49.374;8.584;2024-03-02T11:40:40;99138.25;;;13.40;100.00
24486;BME280;13449;49.374;8.584;2024-03-02T11:43:07;99137.41;;;13.39;100.00
24486;BME280;13449;49.374;8.584;2024-03-02T11:45:36;99125.31;;;13.61;100.00
24486;BME280;13449;49.374;8.584;2024-03-02T11:48:08;99118.16;;;13.70;100.00
24486;BME280;13449;49.374;8.584;2024-03-02T11:50:46;99114.53;;;13.71;100.00
24486;BME280;13449;49.374;8.584;2024-03-02T11:53:14;99123.81;;;13.75;100.00
24486;BME280;13449;49.374;8.584;2024-03-02T11:55:40;99109.91;;;13.73;100.00
24486;BME280;13449;49.374;8.584;2024-03-02T11:58:07;99108.88;;;13.82;100.00
24486;BME280;13449;49.374;8.584;2024-03-02T12:00:34;99101.91;;;13.89;100.00
24486;BME280;13449;49.374;8.584;2024-03-02T12:03:04;99098.44;;;13.89;100.00
24486;BME280;13449;49.374;8.584;2024-03-02T12:05:32;99087.00;;;13.88;100.00
24486;BME280;13449;49.374;8.584;2024-03-02T12:08:03;99087.31;;;13.93;100.00
24486;BME280;13449;49.374;8.584;2024-03-02T12:10:31;99089.59;;;14.04;100.00
24486;BME280;13449;49.374;8.584;2024-03-02T12:12:58;99091.28;;;13.97;100.00
24486;BME280;13449;49.374;8.584;2024-03-02T12:15:35;99091.91;;;13.99;100.00
24486;BME280;13449;49.374;8.584;2024-03-02T12:18:04;99086.91;;;14.13;100.00
24486;BME280;13449;49.374;8.584;2024-03-02T12:20:32;99072.00;;;14.12;100.00
24486;BME280;13449;49.374;8.584;2024-03-02T12:23:02;99089.81;;;14.26;100.00
24486;BME280;13449;49.374;8.584;2024-03-02T12:25:31;99091.56;;;14.02;100.00
24486;BME280;13449;49.374;8.584;2024-03-02T12:28:01;99081.06;;;14.17;100.00
24486;BME280;13449;49.374;8.584;2024-03-02T12:30:30;99081.88;;;14.26;100.00
24486;BME280;13449;49.374;8.584;2024-03-02T12:32:57;99075.84;;;14.32;100.00
24486;BME280;13449;49.374;8.584;2024-03-02T12:35:25;99083.94;;;14.38;100.00
24486;BME280;13449;49.374;8.584;2024-03-02T12:37:53;99082.59;;;14.43;100.00
24486;BME280;13449;49.374;8.584;2024-03-02T12:40:20;99074.56;;;14.28;100.00
24486;BME280;13449;49.374;8.584;2024-03-02T12:42:51;99076.22;;;14.29;100.00
24486;BME280;13449;49.374;8.584;2024-03-02T12:45:18;99073.91;;;14.26;100.00
24486;BME280;13449;49.374;8.584;2024-03-02T12:47:53;99061.94;;;14.38;100.00
24486;BME280;13449;49.374;8.584;2024-03-02T12:50:21;99064.16;;;14.26;100.00
24486;BME280;13449;49.374;8.584;2024-03-02T12:52:54;99063.97;;;14.28;100.00
24486;BME280;13449;49.374;8.584;2024-03-02T12:55:22;99064.91;;;14.35;100.00
24486;BME280;13449;49.374;8.584;2024-03-02T12:57:50;99065.25;;;14.32;100.00
24486;BME280;13449;49.374;8.584;2024-03-02T13:00:19;99068.06;;;14.38;100.00
24486;BME280;13449;49.374;8.584;2024-03-02T13:02:48;99062.78;;;14.30;100.00
24486;BME280;13449;49.374;8.584;2024-03-02T13:05:19;99067.41;;;14.36;100.00
24486;BME280;13449;49.374;8.584;2024-03-02T13:07:49;99072.34;;;14.39;100.00
24486;BME280;13449;49.374;8.584;2024-03-02T13:10:16;99068.16;;;14.53;100.00
24486;BME280;13449;49.374;8.584;2024-03-02T13:12:43;99070.66;;;14.47;100.00
24486;BME280;13449;49.374;8.584;2024-03-02T13:15:15;99057.53;;;14.53;100.00
24486;BME280;13449;49.374;8.584;2024-03-02T13:17:44;99068.03;;;14.70;100.00
24486;BME280;13449;49.374;8.584;2024-03-02T13:20:14;99065.50;;;14.91;100.00